地図

経路データ

SID SEASON NUMBER BASIN SUBBASIN NAME ISO_TIME NATURE LAT LON WMO_WIND WMO_PRES WMO_AGENCY TRACK_TYPE DIST2LAND LANDFALL IFLAG USA_AGENCY USA_ATCF_ID USA_LAT USA_LON USA_RECORD USA_STATUS USA_WIND USA_PRES USA_SSHS USA_R34_NE USA_R34_SE USA_R34_SW USA_R34_NW USA_R50_NE USA_R50_SE USA_R50_SW USA_R50_NW USA_R64_NE USA_R64_SE USA_R64_SW USA_R64_NW USA_POCI USA_ROCI USA_RMW USA_EYE TOKYO_LAT TOKYO_LON TOKYO_GRADE TOKYO_WIND TOKYO_PRES TOKYO_R50_DIR TOKYO_R50_LONG TOKYO_R50_SHORT TOKYO_R30_DIR TOKYO_R30_LONG TOKYO_R30_SHORT TOKYO_LAND CMA_LAT CMA_LON CMA_CAT CMA_WIND CMA_PRES HKO_LAT HKO_LON HKO_CAT HKO_WIND HKO_PRES NEWDELHI_LAT NEWDELHI_LON NEWDELHI_GRADE NEWDELHI_WIND NEWDELHI_PRES NEWDELHI_CI NEWDELHI_DP NEWDELHI_POCI REUNION_LAT REUNION_LON REUNION_TYPE REUNION_WIND REUNION_PRES REUNION_TNUM REUNION_CI REUNION_RMW REUNION_R34_NE REUNION_R34_SE REUNION_R34_SW REUNION_R34_NW REUNION_R50_NE REUNION_R50_SE REUNION_R50_SW REUNION_R50_NW REUNION_R64_NE REUNION_R64_SE REUNION_R64_SW REUNION_R64_NW BOM_LAT BOM_LON BOM_TYPE BOM_WIND BOM_PRES BOM_TNUM BOM_CI BOM_RMW BOM_R34_NE BOM_R34_SE BOM_R34_SW BOM_R34_NW BOM_R50_NE BOM_R50_SE BOM_R50_SW BOM_R50_NW BOM_R64_NE BOM_R64_SE BOM_R64_SW BOM_R64_NW BOM_ROCI BOM_POCI BOM_EYE BOM_POS_METHOD BOM_PRES_METHOD NADI_LAT NADI_LON NADI_CAT NADI_WIND NADI_PRES WELLINGTON_LAT WELLINGTON_LON WELLINGTON_WIND WELLINGTON_PRES DS824_LAT DS824_LON DS824_STAGE DS824_WIND DS824_PRES TD9636_LAT TD9636_LON TD9636_STAGE TD9636_WIND TD9636_PRES TD9635_LAT TD9635_LON TD9635_WIND TD9635_PRES TD9635_ROCI NEUMANN_LAT NEUMANN_LON NEUMANN_CLASS NEUMANN_WIND NEUMANN_PRES MLC_LAT MLC_LON MLC_CLASS MLC_WIND MLC_PRES USA_GUST BOM_GUST BOM_GUST_PER REUNION_GUST REUNION_GUST_PER USA_SEAHGT USA_SEARAD_NE USA_SEARAD_SE USA_SEARAD_SW USA_SEARAD_NW STORM_SPEED STORM_DIR
1907070S16118 1907 16 SI WA NOT_NAMED 1907-03-11 00:00:00 NR -16.2000 118.200 main 443 427 __________O___ -1 -16.2000 118.200 7 5 213
1907070S16118 1907 16 SI WA NOT_NAMED 1907-03-11 03:00:00 NR -16.4283 118.044 main 429 408 __________P___ -1 -16.4283 118.044 7 5 213
1907070S16118 1907 16 SI WA NOT_NAMED 1907-03-11 06:00:00 NR -16.6452 117.901 main 411 393 __________P___ -1 -16.6452 117.901 7 5 211
1907070S16118 1907 16 SI WA NOT_NAMED 1907-03-11 09:00:00 NR -16.8395 117.782 main 393 376 __________P___ -1 -16.8395 117.782 7 4 208
1907070S16118 1907 16 SI WA NOT_NAMED 1907-03-11 12:00:00 NR -17.0000 117.700 main 376 366 __________O___ -1 -17.0000 117.700 7 3 202
1907070S16118 1907 16 SI WA NOT_NAMED 1907-03-11 15:00:00 NR -17.1237 117.662 main 366 356 __________P___ -1 -17.1237 117.662 7 2 190
1907070S16118 1907 16 SI WA NOT_NAMED 1907-03-11 18:00:00 NR -17.2399 117.649 main 360 339 __________P___ -1 -17.2399 117.649 7 3 0
1907070S16118 1907 16 SI WA NOT_NAMED 1907-03-11 21:00:00 NR -17.3862 117.637 main 339 317 __________P___ -1 -17.3862 117.637 7 4 187
1907070S16118 1907 16 SI WA NOT_NAMED 1907-03-12 00:00:00 NR -17.6000 117.600 main 317 286 __________O___ -1 -17.6000 117.600 7 6 191
1907070S16118 1907 16 SI WA NOT_NAMED 1907-03-12 03:00:00 NR -17.9321 117.524 main 286 246 __________P___ -1 -17.9321 117.524 7 8 193
1907070S16118 1907 16 SI WA NOT_NAMED 1907-03-12 06:00:00 NR -18.3324 117.417 main 246 207 __________P___ -1 -18.3324 117.417 7 9 196
1907070S16118 1907 16 SI WA NOT_NAMED 1907-03-12 09:00:00 NR -18.7665 117.277 main 197 159 __________P___ -1 -18.7665 117.277 7 9 199
1907070S16118 1907 16 SI WA NOT_NAMED 1907-03-12 12:00:00 NR -19.2000 117.100 main 159 112 __________O___ -1 -19.2000 117.100 7 9 203
1907070S16118 1907 16 SI WA NOT_NAMED 1907-03-12 15:00:00 NR -19.5943 116.902 main 112 67 __________P___ -1 -19.5943 116.902 7 9 208
1907070S16118 1907 16 SI WA NOT_NAMED 1907-03-12 18:00:00 NR -19.9798 116.667 main 67 39 __________P___ -1 -19.9798 116.667 7 9 212
1907070S16118 1907 16 SI WA NOT_NAMED 1907-03-12 21:00:00 NR -20.3504 116.399 main 38 24 __________P___ -1 -20.3504 116.399 7 9 216
1907070S16118 1907 16 SI WA NOT_NAMED 1907-03-13 00:00:00 NR -20.7000 116.100 main 24 11 __________O___ -1 -20.7000 116.100 7 9 220
1907070S16118 1907 16 SI WA NOT_NAMED 1907-03-13 03:00:00 NR -21.0378 115.783 main 15 10 __________P___ -1 -21.0378 115.783 7 9 223
1907070S16118 1907 16 SI WA NOT_NAMED 1907-03-13 06:00:00 NR -21.3524 115.437 main 15 0 __________P___ -1 -21.3524 115.437 7 9 228
1907070S16118 1907 16 SI WA NOT_NAMED 1907-03-13 09:00:00 NR -21.6408 115.073 main 10 0 __________P___ -1 -21.6408 115.073 7 9 231
1907070S16118 1907 16 SI WA NOT_NAMED 1907-03-13 12:00:00 NR -21.9000 114.700 main 0 0 __________O___ -1 -21.9000 114.700 7 9 237
1907070S16118 1907 16 SI WA NOT_NAMED 1907-03-13 15:00:00 NR -22.1211 114.279 main 20 0 __________P___ -1 -22.1211 114.279 7 9 242
1907070S16118 1907 16 SI WA NOT_NAMED 1907-03-13 18:00:00 NR -22.3157 113.860 main 0 0 __________P___ -1 -22.3157 113.860 7 8 243
1907070S16118 1907 16 SI WA NOT_NAMED 1907-03-13 21:00:00 NR -22.5023 113.486 main 15 15 __________P___ -1 -22.5023 113.486 7 7 238
1907070S16118 1907 16 SI WA NOT_NAMED 1907-03-14 00:00:00 NR -22.7000 113.200 main 42 42 __________O___ -1 -22.7000 113.200 7 6 224
1907070S16118 1907 16 SI WA NOT_NAMED 1907-03-14 03:00:00 NR -22.9351 113.036 main 70 70 __________P___ -1 -22.9351 113.036 7 5 204
1907070S16118 1907 16 SI WA NOT_NAMED 1907-03-14 06:00:00 NR -23.1844 112.965 main 81 75 __________P___ -1 -23.1844 112.965 7 5 188
1907070S16118 1907 16 SI WA NOT_NAMED 1907-03-14 09:00:00 NR -23.4415 112.961 main 75 55 __________P___ -1 -23.4415 112.961 7 5 175
1907070S16118 1907 16 SI WA NOT_NAMED 1907-03-14 12:00:00 NR -23.7000 113.000 main 55 52 __________O___ -1 -23.7000 113.000 7 5 187
1907070S16118 1907 16 SI WA NOT_NAMED 1907-03-14 15:00:00 NR -23.8909 112.897 main 60 60 __________P___ -1 -23.8909 112.897 7 4 200
1907070S16118 1907 16 SI WA NOT_NAMED 1907-03-14 18:00:00 NR -24.0910 112.850 main 69 51 __________P___ -1 -24.0910 112.850 7 5 173
1907070S16118 1907 16 SI WA NOT_NAMED 1907-03-14 21:00:00 NR -24.3456 112.952 main 42 30 __________P___ -1 -24.3456 112.952 7 7 146
1907070S16118 1907 16 SI WA NOT_NAMED 1907-03-15 00:00:00 NR -24.7000 113.300 main 30 0 __________O___ -1 -24.7000 113.300 7 13 133
1907070S16118 1907 16 SI WA NOT_NAMED 1907-03-15 03:00:00 NR -25.2304 113.995 main 0 0 __________P___ -1 -25.2304 113.995 7 19 128
1907070S16118 1907 16 SI WA NOT_NAMED 1907-03-15 06:00:00 NR -25.8511 114.943 main 0 0 __________P___ -1 -25.8511 114.943 7 22 124
1907070S16118 1907 16 SI WA NOT_NAMED 1907-03-15 09:00:00 NR -26.4957 116.046 main 0 0 __________P___ -1 -26.4957 116.046 7 24 122
1907070S16118 1907 16 SI WA NOT_NAMED 1907-03-15 12:00:00 NR -27.1000 117.200 main 0 0 __________O___ -1 -27.1000 117.200 7 22 120
1907070S16118 1907 16 SI WA NOT_NAMED 1907-03-15 15:00:00 NR -27.5999 118.209 main 0 0 __________P___ -1 -27.5999 118.209 7 21 118
1907070S16118 1907 16 SI WA NOT_NAMED 1907-03-15 18:00:00 NR -28.0491 119.249 main 0 0 __________P___ -1 -28.0491 119.249 7 21 114
1907070S16118 1907 16 SI WA NOT_NAMED 1907-03-15 21:00:00 NR -28.4489 120.340 main 0 0 __________P___ -1 -28.4489 120.340 7 21 111
1907070S16118 1907 16 SI WA NOT_NAMED 1907-03-16 00:00:00 NR -28.8000 121.500 main 0 0 __________O___ -1 -28.8000 121.500 7 22 107
1907070S16118 1907 16 SI WA NOT_NAMED 1907-03-16 03:00:00 NR -29.0826 122.747 main 0 0 __________P___ -1 -29.0826 122.747 7 23 103
1907070S16118 1907 16 SI WA NOT_NAMED 1907-03-16 06:00:00 NR -29.3201 124.061 main 0 0 __________P___ -1 -29.3201 124.061 7 24 101
1907070S16118 1907 16 SI WA NOT_NAMED 1907-03-16 09:00:00 NR -29.5474 125.419 main 0 0 __________P___ -1 -29.5474 125.419 7 24 101
1907070S16118 1907 16 SI WA NOT_NAMED 1907-03-16 12:00:00 NR -29.8000 126.800 main 0 0 __________O___ -1 -29.8000 126.800 7 26 103
1907070S16118 1907 16 SI WA NOT_NAMED 1907-03-16 15:00:00 NR -30.1302 128.312 main 0 0 __________P___ -1 -30.1302 128.312 7 27 105
1907070S16118 1907 16 SI WA NOT_NAMED 1907-03-16 18:00:00 NR -30.4856 129.826 main 0 0 __________P___ -1 -30.4856 129.826 7 26 106
1907070S16118 1907 16 SI WA NOT_NAMED 1907-03-16 21:00:00 NR -30.8471 131.228 main 0 0 __________P___ -1 -30.8471 131.228 7 23 108
1907070S16118 1907 16 SI WA NOT_NAMED 1907-03-17 00:00:00 NR -31.2000 132.400 main 0 0 __________O___ -1 -31.2000 132.400 7 18 111
1907070S16118 1907 16 SI WA NOT_NAMED 1907-03-17 03:00:00 NR -31.4985 133.208 main 0 0 __________P___ -1 -31.4985 133.208 7 13 117
1907070S16118 1907 16 SI WA NOT_NAMED 1907-03-17 06:00:00 NR -31.8015 133.777 main 0 0 __________P___ -1 -31.8015 133.777 7 11 127
1907070S16118 1907 16 SI WA NOT_NAMED 1907-03-17 09:00:00 NR -32.1293 134.208 main 0 0 __________P___ -1 -32.1293 134.208 7 10 135
1907070S16118 1907 16 SI WA NOT_NAMED 1907-03-17 12:00:00 NR -32.5000 134.600 main 0 0 __________O___ -1 -32.5000 134.600 7 11 137
1907070S16118 1907 16 SP EA NOT_NAMED 1907-03-17 15:00:00 NR -32.9595 135.118 main 0 0 __________P___ -1 -32.9595 135.118 7 13 138
1907070S16118 1907 16 SP EA NOT_NAMED 1907-03-17 18:00:00 NR -33.4565 135.621 main 0 0 __________P___ -1 -33.4565 135.621 7 13 140
1907070S16118 1907 16 SP EA NOT_NAMED 1907-03-17 21:00:00 NR -33.9503 136.115 main 0 0 __________P___ -1 -33.9503 136.115 7 12 139
1907070S16118 1907 16 SP EA NOT_NAMED 1907-03-18 00:00:00 NR -34.4000 136.600 main 35 33 __________O___ -1 -34.4000 136.600 7 11 134
1907070S16118 1907 16 SP EA NOT_NAMED 1907-03-18 03:00:00 NR -34.7290 137.078 main 33 0 __________P___ -1 -34.7290 137.078 7 10 128
1907070S16118 1907 16 SP EA NOT_NAMED 1907-03-18 06:00:00 NR -35.0137 137.548 main 0 0 __________P___ -1 -35.0137 137.548 7 10 126
1907070S16118 1907 16 SP EA NOT_NAMED 1907-03-18 09:00:00 NR -35.2915 138.018 main 28 0 __________P___ -1 -35.2915 138.018 7 10 127
1907070S16118 1907 16 SP EA NOT_NAMED 1907-03-18 12:00:00 NR -35.6000 138.500 main 0 0 __________O___ -1 -35.6000 138.500 7 10 130
1907070S16118 1907 16 SP EA NOT_NAMED 1907-03-18 15:00:00 NR -35.9673 139.001 main 34 14 __________P___ -1 -35.9673 139.001 7 11 134
1907070S16118 1907 16 SP EA NOT_NAMED 1907-03-18 18:00:00 NR -36.3848 139.520 main 21 0 __________P___ -1 -36.3848 139.520 7 12 136
1907070S16118 1907 16 SP EA NOT_NAMED 1907-03-18 21:00:00 NR -36.8350 140.054 main 0 0 __________P___ -1 -36.8350 140.054 7 13 137
1907070S16118 1907 16 SP EA NOT_NAMED 1907-03-19 00:00:00 NR -37.3000 140.600 main 0 __________O___ -1 -37.3000 140.600 7 13 137

IBTrACS Databaseについて

本データベースは、米国NOAAが公開する1842年以降の世界の熱帯低気圧のベストトラックデータアーカイブInternational Best Track Archive for Climate Stewardship (IBTrACS)を、ウェブで閲覧しやすい形式に変換したものです。

最終更新日:2021-10-21